createdAt,value
2018-12-02T00:04:56.487Z,94.90
2018-12-02T00:10:07.583Z,94.60
2018-12-02T00:15:27.552Z,94.80
2018-12-02T00:20:44.432Z,94.80
2018-12-02T00:26:03.872Z,94.80
2018-12-02T00:31:20.557Z,94.60
2018-12-02T00:36:35.209Z,94.60
2018-12-02T00:41:53.888Z,94.50
2018-12-02T00:47:05.041Z,94.50
2018-12-02T00:52:22.795Z,94.50
2018-12-02T00:57:36.017Z,95.70
2018-12-02T01:02:51.890Z,96.90
2018-12-02T01:08:15.108Z,98.50
2018-12-02T01:13:34.056Z,99.40
2018-12-02T01:18:53.651Z,99.40
2018-12-02T01:24:18.559Z,99.20
2018-12-02T01:29:40.661Z,98.70
2018-12-02T01:35:01.711Z,98.70
2018-12-02T01:40:15.890Z,98.40
2018-12-02T01:45:33.203Z,97.50
2018-12-02T01:56:07.753Z,97.10
2018-12-02T02:01:22.684Z,97.10
2018-12-02T02:06:36.162Z,97.10
2018-12-02T02:11:54.287Z,97.40
2018-12-02T02:17:07.575Z,97.60
2018-12-02T02:22:27.590Z,98.60
2018-12-02T02:27:44.326Z,99.10
2018-12-02T02:33:00.770Z,99.10
2018-12-02T02:38:18.063Z,99.20
2018-12-02T02:43:35.043Z,99.30
2018-12-02T02:59:14.640Z,99.90
2018-12-02T03:04:29.333Z,99.90
2018-12-02T03:09:49.604Z,99.90
2018-12-02T03:15:05.710Z,99.90
2018-12-02T03:20:28.049Z,99.90
2018-12-02T03:25:47.127Z,99.90
2018-12-02T03:36:20.228Z,99.90
2018-12-02T03:41:35.425Z,99.90
2018-12-02T03:57:20.247Z,99.90
2018-12-02T04:02:40.652Z,99.90
2018-12-02T04:07:58.655Z,99.90
2018-12-02T04:13:16.761Z,99.90
2018-12-02T04:18:38.952Z,99.90
2018-12-02T04:24:01.090Z,99.90
2018-12-02T04:29:17.185Z,99.90
2018-12-02T04:45:02.841Z,99.90
2018-12-02T04:50:29.876Z,99.90
2018-12-02T04:55:45.182Z,99.90
2018-12-02T05:01:01.579Z,99.90
2018-12-02T05:16:51.116Z,99.90
2018-12-02T05:22:03.339Z,99.90
2018-12-02T05:27:21.162Z,99.90
2018-12-02T05:32:45.586Z,99.90
2018-12-02T05:38:03.266Z,99.90
2018-12-02T05:48:39.713Z,99.90
2018-12-02T05:53:52.653Z,99.90
2018-12-02T05:59:09.189Z,99.90
2018-12-02T06:14:52.687Z,99.90
2018-12-02T06:20:14.134Z,99.90
2018-12-02T06:25:36.312Z,99.90
2018-12-02T06:30:57.020Z,99.90
2018-12-02T06:41:30.128Z,99.90
2018-12-02T06:46:50.460Z,99.90
2018-12-02T06:52:05.197Z,99.90
2018-12-02T07:02:42.799Z,99.90
2018-12-02T07:08:02.158Z,99.90
2018-12-02T07:13:21.555Z,99.90
2018-12-02T07:18:34.602Z,99.90
2018-12-02T07:23:56.630Z,99.90
2018-12-02T07:29:14.586Z,99.90
2018-12-02T07:34:28.044Z,99.90
2018-12-02T07:39:47.686Z,99.90
2018-12-02T07:45:02.032Z,99.90
2018-12-02T07:50:17.754Z,99.90
2018-12-02T07:55:30.958Z,99.90
2018-12-02T08:00:42.809Z,99.90
2018-12-02T08:05:57.341Z,99.90
2018-12-02T08:11:09.775Z,99.90
2018-12-02T08:16:22.951Z,99.90
2018-12-02T08:21:40.882Z,99.90
2018-12-02T08:27:00.066Z,99.90
2018-12-02T08:32:10.339Z,99.90
2018-12-02T08:37:21.848Z,99.90
2018-12-02T08:42:35.756Z,99.90
2018-12-02T08:47:46.353Z,99.90
2018-12-02T08:53:01.545Z,99.90
2018-12-02T08:58:14.922Z,99.90
2018-12-02T09:03:24.902Z,99.90
2018-12-02T09:08:34.147Z,99.90
2018-12-02T09:13:40.111Z,99.90
2018-12-02T09:18:57.978Z,99.90
2018-12-02T09:24:07.778Z,99.90
2018-12-02T09:29:15.968Z,99.90
2018-12-02T09:34:32.321Z,99.90
2018-12-02T09:39:52.308Z,99.90
2018-12-02T09:45:07.662Z,99.90
2018-12-02T09:50:19.641Z,99.90
2018-12-02T09:55:26.535Z,99.90
2018-12-02T10:00:35.551Z,99.90
2018-12-02T10:05:42.357Z,99.90
2018-12-02T10:10:51.524Z,99.90
2018-12-02T10:16:04.874Z,99.90
2018-12-02T10:21:10.454Z,99.90
2018-12-02T10:26:19.022Z,99.90
2018-12-02T10:31:21.061Z,99.90
2018-12-02T10:36:24.663Z,99.90
2018-12-02T10:41:28.147Z,99.90
2018-12-02T10:46:30.802Z,99.90
2018-12-02T10:51:33.491Z,99.90
2018-12-02T10:56:35.749Z,99.90
2018-12-02T11:01:38.554Z,99.90
2018-12-02T11:06:39.342Z,99.90
2018-12-02T11:11:39.786Z,99.90
2018-12-02T11:16:40.916Z,99.90
2018-12-02T11:21:39.933Z,99.90
2018-12-02T11:26:41.336Z,99.90
2018-12-02T11:31:39.076Z,99.90
2018-12-02T11:36:37.015Z,99.90
2018-12-02T11:41:38.637Z,99.90
2018-12-02T11:46:37.073Z,99.90
2018-12-02T11:51:34.849Z,99.90
2018-12-02T11:56:33.422Z,99.90
2018-12-02T12:01:35.065Z,99.90
2018-12-02T12:06:35.502Z,99.90
2018-12-02T12:11:32.044Z,99.90
2018-12-02T12:16:31.242Z,99.90
2018-12-02T12:21:29.629Z,99.90
2018-12-02T12:26:27.891Z,99.90
2018-12-02T12:31:26.832Z,99.90
2018-12-02T12:36:22.468Z,99.90
2018-12-02T12:41:22.293Z,99.90
2018-12-02T12:46:17.781Z,99.90
2018-12-02T12:51:16.682Z,99.90
2018-12-02T12:56:12.414Z,99.90
2018-12-02T13:01:11.415Z,99.90
2018-12-02T13:06:09.512Z,99.90
2018-12-02T13:11:07.339Z,99.90
2018-12-02T13:16:03.978Z,99.90
2018-12-02T13:21:01.529Z,99.90
2018-12-02T13:25:57.646Z,99.90
2018-12-02T13:36:20.054Z,99.90
2018-12-02T13:41:15.894Z,99.90
2018-12-02T13:46:11.739Z,99.90
2018-12-02T13:51:10.449Z,99.90
2018-12-02T13:56:09.299Z,99.90
2018-12-02T14:01:05.300Z,99.90
2018-12-02T14:06:04.143Z,99.90
2018-12-02T14:11:02.664Z,99.90
2018-12-02T14:16:02.882Z,99.90
2018-12-02T14:21:01.001Z,99.90
2018-12-02T14:25:59.163Z,99.90
2018-12-02T14:30:57.918Z,99.90
2018-12-02T14:35:56.805Z,99.90
2018-12-02T14:41:06.135Z,99.90
2018-12-02T14:46:02.945Z,99.90
2018-12-02T14:51:01.639Z,99.90
2018-12-02T14:56:01.731Z,99.90
2018-12-02T15:01:05.654Z,99.90
2018-12-02T15:06:02.823Z,99.90
2018-12-02T15:11:03.724Z,99.90
2018-12-02T15:16:02.882Z,99.90
2018-12-02T15:21:03.969Z,99.90
2018-12-02T15:26:04.748Z,99.90
2018-12-02T15:31:03.822Z,99.90
2018-12-02T15:36:05.044Z,99.90
2018-12-02T15:41:04.171Z,99.90
2018-12-02T15:46:02.121Z,99.90
2018-12-02T15:51:01.530Z,99.90
2018-12-02T15:56:02.346Z,99.90
2018-12-02T16:00:59.978Z,99.90
2018-12-02T16:06:04.765Z,99.90
2018-12-02T16:11:01.355Z,99.90
2018-12-02T16:16:02.750Z,99.90
2018-12-02T16:21:03.439Z,99.90
2018-12-02T16:26:03.818Z,99.90
2018-12-02T16:31:04.528Z,99.90
2018-12-02T16:36:03.424Z,99.90
2018-12-02T16:41:01.281Z,99.90
2018-12-02T16:46:02.058Z,99.90
2018-12-02T16:51:02.361Z,99.90
2018-12-02T16:56:04.166Z,99.90
2018-12-02T17:01:03.573Z,99.90
2018-12-02T17:06:03.771Z,99.90
2018-12-02T17:11:10.212Z,99.90
2018-12-02T17:16:07.489Z,99.90
2018-12-02T17:21:17.128Z,99.90
2018-12-02T17:26:14.445Z,99.90
2018-12-02T17:31:12.624Z,99.90
2018-12-02T17:36:11.149Z,99.90
2018-12-02T17:41:10.623Z,99.90
2018-12-02T17:46:09.539Z,99.90
2018-12-02T17:51:05.928Z,99.90
2018-12-02T17:56:06.776Z,99.90
2018-12-02T18:01:02.725Z,99.90
2018-12-02T18:06:02.469Z,99.90
2018-12-02T18:11:02.121Z,99.90
2018-12-02T18:16:00.998Z,99.90
2018-12-02T18:21:00.202Z,99.90
2018-12-02T18:25:57.290Z,99.90
2018-12-02T18:30:55.070Z,99.90
2018-12-02T18:35:54.512Z,99.90
2018-12-02T18:40:52.668Z,99.90
2018-12-02T18:45:52.440Z,99.90
2018-12-02T18:50:50.536Z,99.90
2018-12-02T18:55:51.029Z,99.90
2018-12-02T19:00:46.986Z,99.90
2018-12-02T19:05:46.837Z,99.90
2018-12-02T19:10:44.899Z,99.90
2018-12-02T19:15:43.472Z,99.90
2018-12-02T19:20:42.935Z,99.90
2018-12-02T19:25:41.039Z,99.90
2018-12-02T19:30:39.470Z,99.90
2018-12-02T19:35:39.052Z,99.90
2018-12-02T19:40:35.259Z,99.90
2018-12-02T19:45:33.578Z,99.90
2018-12-02T19:50:34.468Z,99.90
2018-12-02T19:55:34.620Z,99.90
2018-12-02T20:00:33.621Z,99.90
2018-12-02T20:05:32.145Z,99.90
2018-12-02T20:10:33.574Z,99.90
2018-12-02T20:15:34.407Z,99.90
2018-12-02T20:20:38.123Z,99.90
2018-12-02T20:25:38.306Z,99.90
2018-12-02T20:30:42.483Z,99.90
2018-12-02T20:35:50.005Z,99.90
2018-12-02T20:40:52.031Z,99.90
2018-12-02T20:45:51.780Z,99.90
2018-12-02T20:50:52.719Z,99.90
2018-12-02T20:55:56.063Z,99.90
2018-12-02T21:00:58.514Z,99.90
2018-12-02T21:06:01.050Z,99.90
2018-12-02T21:11:03.908Z,99.90
2018-12-02T21:16:09.701Z,99.90
2018-12-02T21:21:17.022Z,99.90
2018-12-02T21:26:17.286Z,99.90
2018-12-02T21:31:18.295Z,99.90
2018-12-02T21:36:21.252Z,99.90
2018-12-02T21:41:25.078Z,99.90
2018-12-02T21:46:25.637Z,99.90
2018-12-02T21:51:26.645Z,99.90
2018-12-02T21:56:27.687Z,99.90
2018-12-02T22:01:31.835Z,99.90
2018-12-02T22:06:34.160Z,99.90
2018-12-02T22:11:35.043Z,99.90
2018-12-02T22:16:35.875Z,99.90
2018-12-02T22:21:39.789Z,99.90
2018-12-02T22:26:46.164Z,99.90
2018-12-02T22:31:54.508Z,99.90
2018-12-02T22:37:02.416Z,99.90
2018-12-02T22:42:09.541Z,99.90
2018-12-02T22:47:18.141Z,99.90
2018-12-02T22:52:18.199Z,99.90
2018-12-02T22:57:19.091Z,99.90
2018-12-02T23:02:18.966Z,99.90
2018-12-02T23:07:19.441Z,99.90
2018-12-02T23:12:23.554Z,99.90
2018-12-02T23:17:24.202Z,99.90
2018-12-02T23:22:24.743Z,99.90
2018-12-02T23:27:31.960Z,99.90
2018-12-02T23:32:31.632Z,99.90
2018-12-02T23:37:31.774Z,99.90
2018-12-02T23:42:38.624Z,99.90
2018-12-02T23:47:38.240Z,99.90
2018-12-02T23:52:38.915Z,99.90
2018-12-02T23:57:38.901Z,99.90
